Time;durP1;ratioP1;P1;durP2;ratioP2;P2;SDS_P1;SDS_P2;PMS_P1;PMS_P2;Temp;Humidity;BMP_temperature;BMP_pressure;BME280_temperature;BME280_humidity;BME280_pressure;Samples;Min_cycle;Max_cycle;Signal;HPM_P1;HPM_P2
2022/07/17 00:00:03;;;;;;;1.50;0.70;;;23.20;48.80;;;;;;5012564;28;20033;-64
2022/07/17 00:02:29;;;;;;;0.80;0.52;;;23.20;48.80;;;;;;4998775;28;20041;-64
2022/07/17 00:04:54;;;;;;;1.58;0.70;;;23.20;48.80;;;;;;5011289;28;20463;-64
2022/07/17 00:07:20;;;;;;;2.33;1.02;;;23.20;48.80;;;;;;5031001;28;20052;-64
2022/07/17 00:09:46;;;;;;;1.95;0.65;;;23.20;48.90;;;;;;5028910;28;20041;-64
2022/07/17 00:12:11;;;;;;;0.93;0.73;;;23.20;48.90;;;;;;5029192;28;20068;-64
2022/07/17 00:14:37;;;;;;;1.10;0.90;;;23.20;48.90;;;;;;5032943;28;20604;-64
2022/07/17 00:17:05;;;;;;;2.47;0.85;;;23.20;48.80;;;;;;5031176;28;20646;-64
2022/07/17 00:19:31;;;;;;;1.80;0.98;;;23.20;48.80;;;;;;5030218;28;20052;-63
2022/07/17 00:21:57;;;;;;;1.35;0.80;;;23.20;48.80;;;;;;5027447;28;20596;-64
2022/07/17 00:24:23;;;;;;;1.35;0.88;;;23.20;48.80;;;;;;5031587;28;20071;-64
2022/07/17 00:26:50;;;;;;;1.60;0.60;;;23.20;48.80;;;;;;5030590;28;20531;-64
2022/07/17 00:29:16;;;;;;;1.40;0.73;;;23.20;48.80;;;;;;5012223;28;20053;-65
2022/07/17 00:31:43;;;;;;;1.80;0.80;;;23.20;48.80;;;;;;5030760;28;20081;-64
2022/07/17 00:34:09;;;;;;;1.25;0.80;;;23.20;48.80;;;;;;5027246;28;20037;-64
2022/07/17 00:36:35;;;;;;;2.85;1.13;;;23.20;48.80;;;;;;5029466;28;20551;-64
2022/07/17 00:39:00;;;;;;;0.68;0.60;;;23.20;48.80;;;;;;5011202;28;20045;-64
2022/07/17 00:41:26;;;;;;;1.70;0.70;;;23.20;48.80;;;;;;5029244;28;20397;-64
2022/07/17 00:43:52;;;;;;;1.33;0.88;;;23.20;48.80;;;;;;5031572;28;20087;-64
2022/07/17 00:46:17;;;;;;;2.80;0.98;;;23.20;48.80;;;;;;5028770;28;20855;-64
2022/07/17 00:48:43;;;;;;;0.70;0.70;;;23.20;48.80;;;;;;5027734;28;20042;-64
2022/07/17 00:51:09;;;;;;;1.73;0.60;;;23.20;48.80;;;;;;5028576;28;20409;-64
2022/07/17 00:53:37;;;;;;;2.78;0.98;;;23.20;48.80;;;;;;5028682;28;20037;-64
2022/07/17 00:56:05;;;;;;;1.65;0.80;;;23.20;48.90;;;;;;5027699;28;20041;-65
2022/07/17 00:58:36;;;;;;;1.35;0.70;;;23.20;48.90;;;;;;5028504;28;20122;-64
2022/07/17 01:01:06;;;;;;;1.30;0.93;;;23.20;48.90;;;;;;5008540;28;20041;-64
2022/07/17 01:03:31;;;;;;;2.80;0.80;;;23.20;48.80;;;;;;5010111;28;20098;-64
2022/07/17 01:05:57;;;;;;;1.58;0.80;;;23.20;48.80;;;;;;5027811;28;20050;-64
2022/07/17 01:08:23;;;;;;;0.75;0.65;;;23.10;48.80;;;;;;5027295;28;20041;-64
2022/07/17 01:10:49;;;;;;;2.83;0.80;;;23.10;48.80;;;;;;5029356;28;20080;-64
2022/07/17 01:13:15;;;;;;;1.65;0.80;;;23.10;48.80;;;;;;5009931;28;20045;-64
2022/07/17 01:15:41;;;;;;;2.22;1.00;;;23.10;48.70;;;;;;5007577;28;20045;-64
2022/07/17 01:18:10;;;;;;;1.83;0.90;;;23.10;48.70;;;;;;5009573;28;21186;-64
2022/07/17 01:20:38;;;;;;;2.08;1.10;;;23.10;48.80;;;;;;5029416;28;20044;-64
2022/07/17 01:23:04;;;;;;;1.38;0.85;;;23.10;48.70;;;;;;5025639;28;20037;-64
2022/07/17 01:25:30;;;;;;;1.73;0.77;;;23.10;48.70;;;;;;5012920;28;20044;-64
2022/07/17 01:27:56;;;;;;;1.00;0.75;;;23.10;48.70;;;;;;5029265;28;20050;-64
2022/07/17 01:30:22;;;;;;;1.00;0.90;;;23.10;48.70;;;;;;5030142;28;20021;-64
2022/07/17 01:32:47;;;;;;;0.80;0.65;;;23.10;48.70;;;;;;5030546;28;20048;-64
2022/07/17 01:35:15;;;;;;;1.38;0.63;;;23.10;48.80;;;;;;5032056;28;20044;-64
2022/07/17 01:37:42;;;;;;;2.78;0.98;;;23.10;48.70;;;;;;5028195;28;20099;-64
2022/07/17 01:40:09;;;;;;;1.77;0.80;;;23.10;48.70;;;;;;5007920;28;20490;-64
2022/07/17 01:42:35;;;;;;;1.10;0.75;;;23.10;48.70;;;;;;5030680;28;20040;-64
2022/07/17 01:45:01;;;;;;;1.45;0.93;;;23.10;48.80;;;;;;5009373;28;20045;-66
2022/07/17 01:47:27;;;;;;;1.58;0.80;;;23.10;48.70;;;;;;5030513;28;20053;-64
2022/07/17 01:49:54;;;;;;;1.73;1.00;;;23.10;48.70;;;;;;5025177;28;20056;-64
2022/07/17 01:52:22;;;;;;;1.25;0.85;;;23.10;48.80;;;;;;5005967;28;20838;-64
2022/07/17 01:54:47;;;;;;;2.10;1.00;;;23.10;48.70;;;;;;5025813;28;20037;-65
2022/07/17 01:57:13;;;;;;;2.10;0.95;;;23.10;48.70;;;;;;5005953;28;21131;-64
2022/07/17 01:59:40;;;;;;;1.27;0.88;;;23.10;48.70;;;;;;5025869;28;20051;-64
2022/07/17 02:02:06;;;;;;;1.33;0.90;;;23.10;48.70;;;;;;5025560;28;20037;-64
2022/07/17 02:04:33;;;;;;;1.23;0.80;;;23.10;48.70;;;;;;5028335;28;20033;-64
2022/07/17 02:06:59;;;;;;;2.38;0.98;;;23.10;48.70;;;;;;5024419;28;20037;-64
2022/07/17 02:09:25;;;;;;;2.25;1.02;;;23.10;48.80;;;;;;5007041;28;20545;-64
2022/07/17 02:11:51;;;;;;;2.35;1.02;;;23.10;48.70;;;;;;5026345;28;20041;-63
2022/07/17 02:14:17;;;;;;;1.17;1.00;;;23.10;48.60;;;;;;5007343;28;20533;-64
2022/07/17 02:16:42;;;;;;;1.10;0.90;;;23.10;48.70;;;;;;5009272;28;20060;-64
2022/07/17 02:19:08;;;;;;;1.80;0.90;;;23.10;48.70;;;;;;5027888;28;20489;-64
2022/07/17 02:21:34;;;;;;;0.98;0.77;;;23.00;48.60;;;;;;5027879;28;20500;-65
2022/07/17 02:23:59;;;;;;;1.15;0.80;;;23.10;48.70;;;;;;5006569;28;20056;-64
2022/07/17 02:26:25;;;;;;;1.13;0.80;;;23.00;48.60;;;;;;5029646;28;20044;-65
2022/07/17 02:28:50;;;;;;;1.30;0.70;;;23.00;48.60;;;;;;5030517;28;21656;-64
2022/07/17 02:31:16;;;;;;;1.33;0.88;;;23.00;48.60;;;;;;5028107;28;20046;-64
2022/07/17 02:33:42;;;;;;;1.55;0.85;;;23.00;48.90;;;;;;5029146;28;20045;-64
2022/07/17 02:36:07;;;;;;;1.25;0.90;;;23.00;48.60;;;;;;5028801;28;20060;-64
2022/07/17 02:38:33;;;;;;;2.08;0.82;;;23.00;48.60;;;;;;5027105;28;20079;-64
2022/07/17 02:40:59;;;;;;;0.98;0.82;;;23.00;48.60;;;;;;5026667;28;20033;-64
2022/07/17 02:43:25;;;;;;;1.75;1.08;;;23.00;48.60;;;;;;5029827;28;20401;-64
2022/07/17 02:45:50;;;;;;;0.93;0.90;;;23.00;48.60;;;;;;5028103;28;20509;-65
2022/07/17 02:48:16;;;;;;;2.13;1.25;;;23.00;48.60;;;;;;5030112;28;20132;-65
2022/07/17 02:50:42;;;;;;;1.25;0.82;;;23.00;48.60;;;;;;5013473;28;20156;-65
2022/07/17 02:53:07;;;;;;;1.02;0.80;;;23.00;48.60;;;;;;5026395;28;20615;-65
2022/07/17 02:55:33;;;;;;;1.08;0.90;;;23.00;48.60;;;;;;5030315;28;20515;-65
2022/07/17 02:57:59;;;;;;;1.08;0.73;;;23.00;48.50;;;;;;5028045;28;20047;-65
2022/07/17 03:00:26;;;;;;;1.98;1.00;;;23.00;48.60;;;;;;5029804;28;20041;-65
2022/07/17 03:02:55;;;;;;;1.80;0.95;;;23.00;48.50;;;;;;5029180;28;20485;-65
2022/07/17 03:05:20;;;;;;;2.25;1.10;;;23.00;48.50;;;;;;5026232;28;20060;-65
2022/07/17 03:07:46;;;;;;;0.70;0.70;;;23.00;48.50;;;;;;5024522;28;20045;-65
2022/07/17 03:10:13;;;;;;;2.15;1.00;;;23.00;48.50;;;;;;4992711;28;20037;-65
2022/07/17 03:12:39;;;;;;;1.35;0.98;;;23.00;48.50;;;;;;5012903;28;20616;-64
2022/07/17 03:15:06;;;;;;;0.90;0.90;;;23.00;48.50;;;;;;5032151;28;20032;-65
2022/07/17 03:17:32;;;;;;;1.35;1.00;;;23.00;48.40;;;;;;5029876;28;20041;-64
2022/07/17 03:19:57;;;;;;;2.03;0.73;;;23.00;48.50;;;;;;5015111;28;20045;-64
2022/07/17 03:22:23;;;;;;;1.40;0.90;;;22.90;48.40;;;;;;5010119;28;20119;-65
2022/07/17 03:24:49;;;;;;;1.10;1.00;;;23.00;48.50;;;;;;5026383;28;20047;-65
2022/07/17 03:27:15;;;;;;;1.30;1.05;;;23.00;48.50;;;;;;5027962;28;20596;-65
2022/07/17 03:29:40;;;;;;;1.48;1.00;;;23.00;48.40;;;;;;5027985;28;20144;-65
2022/07/17 03:32:06;;;;;;;1.10;0.75;;;22.90;48.40;;;;;;5032513;28;20112;-66
2022/07/17 03:34:32;;;;;;;0.98;0.90;;;23.00;48.50;;;;;;5015329;28;20039;-65
2022/07/17 03:36:58;;;;;;;1.63;1.00;;;22.90;48.40;;;;;;5033045;28;20438;-65
2022/07/17 03:39:23;;;;;;;0.77;0.77;;;22.90;48.40;;;;;;5012773;28;20056;-64
2022/07/17 03:41:49;;;;;;;0.70;0.70;;;22.90;48.40;;;;;;5030536;28;20048;-64
2022/07/17 03:44:15;;;;;;;0.77;0.73;;;22.90;48.40;;;;;;5031070;28;20132;-64
2022/07/17 03:46:40;;;;;;;2.50;0.98;;;22.90;48.40;;;;;;5030931;28;20092;-64
2022/07/17 03:49:06;;;;;;;1.98;0.98;;;22.90;48.40;;;;;;5030652;28;20056;-65
2022/07/17 03:51:32;;;;;;;1.10;0.90;;;22.90;48.40;;;;;;5014644;28;21077;-65
2022/07/17 03:53:58;;;;;;;2.50;0.98;;;22.90;48.40;;;;;;5011370;28;20075;-64
2022/07/17 03:56:23;;;;;;;1.33;0.93;;;22.90;48.40;;;;;;5029997;28;20337;-65
2022/07/17 03:58:49;;;;;;;0.82;0.70;;;22.90;48.30;;;;;;5029173;28;20049;-65
2022/07/17 04:01:15;;;;;;;1.15;0.70;;;22.90;48.40;;;;;;5012621;28;21070;-64
2022/07/17 04:03:41;;;;;;;1.30;0.80;;;22.90;48.30;;;;;;5032088;28;20140;-63
2022/07/17 04:06:06;;;;;;;0.93;0.70;;;22.90;48.30;;;;;;5034582;28;20120;-66
2022/07/17 04:08:32;;;;;;;1.80;0.93;;;22.90;48.30;;;;;;5028993;28;20462;-65
2022/07/17 04:10:58;;;;;;;1.40;0.95;;;22.90;48.30;;;;;;5028355;28;20041;-65
2022/07/17 04:13:24;;;;;;;1.15;0.75;;;22.90;48.30;;;;;;5032220;28;20033;-64
2022/07/17 04:15:52;;;;;;;1.35;0.88;;;22.90;48.30;;;;;;4995751;28;20044;-64
2022/07/17 04:18:20;;;;;;;1.52;0.90;;;22.90;48.30;;;;;;5030460;28;20160;-64
2022/07/17 04:20:46;;;;;;;1.35;0.80;;;22.90;48.30;;;;;;5014098;28;20049;-65
2022/07/17 04:23:12;;;;;;;1.55;1.10;;;22.90;48.40;;;;;;4995348;28;20033;-65
2022/07/17 04:25:39;;;;;;;1.83;1.00;;;22.90;48.40;;;;;;5029723;28;20475;-65
2022/07/17 04:28:05;;;;;;;1.55;1.00;;;22.90;48.30;;;;;;5010502;28;20087;-64
2022/07/17 04:30:30;;;;;;;2.33;0.90;;;22.90;48.30;;;;;;5028199;28;20045;-64
2022/07/17 04:32:57;;;;;;;1.02;0.90;;;22.90;48.30;;;;;;5029876;28;20136;-64
2022/07/17 04:35:22;;;;;;;1.45;1.00;;;22.90;48.30;;;;;;5031995;28;20045;-64
2022/07/17 04:37:48;;;;;;;1.70;0.90;;;22.90;48.40;;;;;;5029797;28;20496;-65
2022/07/17 04:40:13;;;;;;;2.65;1.05;;;22.90;48.40;;;;;;5027527;28;20095;-65
2022/07/17 04:42:39;;;;;;;1.40;0.80;;;22.90;48.40;;;;;;4994372;28;20057;-65
2022/07/17 04:45:06;;;;;;;1.60;0.75;;;22.80;48.30;;;;;;4993650;28;20048;-64
2022/07/17 04:47:31;;;;;;;1.08;0.80;;;22.90;48.40;;;;;;5011313;28;20130;-65
2022/07/17 04:49:57;;;;;;;1.52;0.82;;;22.90;48.40;;;;;;5029566;28;20041;-63
2022/07/17 04:52:23;;;;;;;2.20;0.88;;;22.90;48.50;;;;;;5029670;28;20041;-64
2022/07/17 04:54:49;;;;;;;1.27;1.00;;;22.80;48.30;;;;;;5031057;28;20072;-64
2022/07/17 04:57:14;;;;;;;0.80;0.70;;;22.80;48.40;;;;;;5029118;28;20400;-65
2022/07/17 04:59:40;;;;;;;1.67;1.00;;;22.80;48.40;;;;;;5029472;28;20048;-64
2022/07/17 05:02:05;;;;;;;0.88;0.82;;;22.80;48.40;;;;;;5028827;28;20055;-65
2022/07/17 05:04:31;;;;;;;0.80;0.80;;;22.80;48.40;;;;;;5029986;28;20072;-64
2022/07/17 05:06:57;;;;;;;1.55;0.90;;;22.80;48.40;;;;;;5030050;28;20100;-65
2022/07/17 05:09:22;;;;;;;1.50;0.80;;;22.80;48.40;;;;;;5026156;28;20030;-65
2022/07/17 05:11:48;;;;;;;2.25;1.23;;;22.80;48.40;;;;;;5029888;28;20036;-64
2022/07/17 05:14:14;;;;;;;1.40;0.80;;;22.80;48.40;;;;;;5028798;28;20060;-64
2022/07/17 05:16:40;;;;;;;2.33;1.00;;;22.80;48.40;;;;;;5028778;28;20052;-64
2022/07/17 05:19:06;;;;;;;1.45;0.77;;;22.80;48.40;;;;;;5012921;28;20068;-65
2022/07/17 05:21:31;;;;;;;1.05;0.80;;;22.80;48.50;;;;;;5012877;28;20470;-64
2022/07/17 05:23:57;;;;;;;1.25;0.95;;;22.80;48.50;;;;;;5027188;28;20048;-64
2022/07/17 05:26:24;;;;;;;1.17;1.00;;;22.80;48.50;;;;;;5011432;28;20211;-64
2022/07/17 05:28:50;;;;;;;1.05;0.93;;;22.80;48.50;;;;;;5028881;28;20041;-66
2022/07/17 05:31:16;;;;;;;1.48;0.93;;;22.80;48.50;;;;;;5031427;28;20046;-65
2022/07/17 05:33:41;;;;;;;1.20;0.80;;;22.80;48.50;;;;;;5012051;28;20044;-64
2022/07/17 05:36:08;;;;;;;1.48;0.90;;;22.80;48.50;;;;;;5029050;28;20038;-65
2022/07/17 05:38:34;;;;;;;0.88;0.85;;;22.80;48.50;;;;;;5027517;28;20105;-64
2022/07/17 05:41:00;;;;;;;2.60;0.90;;;22.80;49.30;;;;;;5026894;28;20156;-64
2022/07/17 05:43:26;;;;;;;1.27;0.82;;;22.80;48.60;;;;;;5010577;28;20049;-65
2022/07/17 05:45:55;;;;;;;1.15;0.70;;;22.80;48.60;;;;;;5010547;28;20045;-64
2022/07/17 05:48:21;;;;;;;1.58;0.80;;;22.80;48.60;;;;;;5028425;28;20521;-64
2022/07/17 05:50:47;;;;;;;1.67;0.70;;;22.80;48.60;;;;;;5012169;28;20052;-65
2022/07/17 05:53:14;;;;;;;1.80;0.70;;;22.80;48.70;;;;;;5007494;28;20529;-64
2022/07/17 05:55:39;;;;;;;2.78;1.00;;;22.80;48.60;;;;;;5024526;28;20500;-64
2022/07/17 05:58:05;;;;;;;3.15;1.05;;;22.80;48.70;;;;;;5028725;28;20033;-64
2022/07/17 06:00:31;;;;;;;1.92;1.00;;;22.80;48.70;;;;;;5026624;28;20059;-64
2022/07/17 06:02:56;;;;;;;1.73;0.68;;;22.80;48.70;;;;;;5028089;28;20045;-64
2022/07/17 06:05:22;;;;;;;2.55;0.70;;;22.80;48.70;;;;;;5029229;28;20045;-65
2022/07/17 06:07:48;;;;;;;1.25;0.90;;;22.80;48.70;;;;;;5028666;28;20038;-65
2022/07/17 06:10:14;;;;;;;2.75;0.93;;;22.80;48.70;;;;;;5026768;28;20036;-64
2022/07/17 06:12:39;;;;;;;1.80;0.70;;;22.80;48.80;;;;;;5009358;28;20057;-64
2022/07/17 06:15:05;;;;;;;1.85;0.60;;;22.80;48.80;;;;;;5029637;28;20029;-65
2022/07/17 06:17:31;;;;;;;2.45;0.95;;;22.80;48.80;;;;;;5028138;28;20037;-64
2022/07/17 06:19:56;;;;;;;1.30;0.70;;;22.80;48.80;;;;;;5028122;28;20049;-64
2022/07/17 06:22:22;;;;;;;1.85;0.70;;;22.80;48.80;;;;;;5026936;28;20171;-64
2022/07/17 06:24:48;;;;;;;1.42;0.73;;;22.80;48.80;;;;;;5009007;28;20080;-64
2022/07/17 06:27:14;;;;;;;1.40;0.75;;;22.80;48.90;;;;;;5026617;28;20608;-65
2022/07/17 06:29:40;;;;;;;2.10;0.70;;;22.80;48.80;;;;;;5010314;28;20696;-64
2022/07/17 06:32:06;;;;;;;1.42;0.75;;;22.80;48.80;;;;;;5028576;28;20112;-64
2022/07/17 06:34:32;;;;;;;1.20;0.70;;;22.70;48.80;;;;;;5010204;28;20047;-64
2022/07/17 06:36:57;;;;;;;1.15;0.70;;;22.80;48.80;;;;;;5027239;28;20054;-64
2022/07/17 06:39:23;;;;;;;1.15;0.80;;;22.70;48.80;;;;;;4994888;28;20041;-64
2022/07/17 06:41:49;;;;;;;0.90;0.70;;;22.80;48.80;;;;;;5026610;28;20049;-64
2022/07/17 06:44:14;;;;;;;1.15;0.70;;;22.70;48.80;;;;;;5027641;28;20120;-65
2022/07/17 06:46:40;;;;;;;1.88;0.60;;;22.70;48.80;;;;;;5025850;28;20924;-64
2022/07/17 06:49:05;;;;;;;1.50;0.95;;;22.70;48.80;;;;;;5027898;28;20056;-64
2022/07/17 06:51:31;;;;;;;2.22;0.93;;;22.70;48.90;;;;;;5030287;28;20108;-65
2022/07/17 06:53:57;;;;;;;1.35;0.70;;;22.80;48.90;;;;;;5028627;28;21819;-65
2022/07/17 06:56:23;;;;;;;1.52;0.50;;;22.70;48.80;;;;;;5025765;28;20111;-65
2022/07/17 06:58:49;;;;;;;1.35;0.70;;;22.70;48.80;;;;;;5029232;28;20733;-65
2022/07/17 07:01:15;;;;;;;1.85;0.70;;;22.70;48.90;;;;;;5026649;28;20049;-63
2022/07/17 07:03:41;;;;;;;3.17;1.13;;;22.80;49.80;;;;;;5027341;28;20047;-65
2022/07/17 07:06:06;;;;;;;1.55;0.80;;;22.80;49.20;;;;;;5025442;28;20478;-65
2022/07/17 07:08:33;;;;;;;2.88;0.68;;;22.80;49.20;;;;;;5027299;28;20036;-65
2022/07/17 07:11:00;;;;;;;1.17;0.70;;;22.80;49.30;;;;;;5025488;28;20041;-64
2022/07/17 07:13:25;;;;;;;4.50;0.93;;;22.80;49.60;;;;;;5027064;28;20029;-64
2022/07/17 07:15:51;;;;;;;1.65;0.90;;;22.80;49.80;;;;;;5011274;28;20045;-63
2022/07/17 07:18:17;;;;;;;6.32;1.05;;;22.80;49.90;;;;;;5008208;28;20037;-64
2022/07/17 07:20:42;;;;;;;5.10;1.25;;;22.80;50.00;;;;;;5029180;28;20052;-64
2022/07/17 07:23:08;;;;;;;4.40;0.98;;;22.90;50.10;;;;;;5028068;28;20167;-65
2022/07/17 07:25:34;;;;;;;4.30;0.90;;;22.90;50.10;;;;;;5030449;28;20669;-63
2022/07/17 07:28:00;;;;;;;4.93;0.80;;;22.90;50.10;;;;;;5030621;28;20605;-64
2022/07/17 07:30:25;;;;;;;4.75;1.20;;;22.90;50.30;;;;;;5030980;28;20041;-63
2022/07/17 07:32:51;;;;;;;3.78;0.90;;;22.90;50.30;;;;;;5028889;28;20052;-63
2022/07/17 07:35:17;;;;;;;9.10;1.67;;;22.90;50.50;;;;;;5030889;28;20534;-64
2022/07/17 07:37:42;;;;;;;5.85;1.00;;;22.90;50.50;;;;;;5028490;28;20393;-64
2022/07/17 07:40:09;;;;;;;3.80;0.90;;;23.00;50.60;;;;;;5026050;28;20111;-64
2022/07/17 07:42:34;;;;;;;7.05;1.25;;;23.00;50.80;;;;;;5008473;28;20047;-63
2022/07/17 07:45:00;;;;;;;6.70;1.08;;;23.00;50.90;;;;;;5029845;28;20489;-64
2022/07/17 07:47:26;;;;;;;4.32;1.30;;;23.00;50.90;;;;;;5006786;28;20424;-63
2022/07/17 07:49:51;;;;;;;5.38;1.45;;;23.00;50.90;;;;;;5029902;28;20041;-66
2022/07/17 07:52:17;;;;;;;6.18;1.27;;;23.00;50.90;;;;;;5001065;28;20552;-64
2022/07/17 07:54:43;;;;;;;4.43;1.00;;;23.00;50.80;;;;;;5030631;28;20545;-61
2022/07/17 07:57:09;;;;;;;3.25;0.95;;;23.00;49.80;;;;;;5027328;28;20130;-64
2022/07/17 07:59:35;;;;;;;6.95;1.00;;;23.00;48.80;;;;;;5010590;28;20049;-62
2022/07/17 08:02:01;;;;;;;2.53;0.90;;;22.90;48.30;;;;;;5029074;28;20499;-62
2022/07/17 08:04:27;;;;;;;2.38;0.82;;;22.90;48.00;;;;;;5028124;28;20071;-68
2022/07/17 08:06:53;;;;;;;3.05;0.77;;;22.80;48.30;;;;;;5010923;28;20060;-65
2022/07/17 08:09:18;;;;;;;4.65;1.17;;;22.80;49.30;;;;;;4996526;28;20044;-62
2022/07/17 08:11:44;;;;;;;4.65;1.05;;;22.80;49.40;;;;;;5027060;28;20037;-65
2022/07/17 08:14:10;;;;;;;3.13;1.13;;;22.90;49.70;;;;;;5011914;28;20131;-65
2022/07/17 08:16:35;;;;;;;4.63;1.15;;;22.90;49.50;;;;;;5010164;28;20049;-65
2022/07/17 08:19:01;;;;;;;3.97;1.00;;;22.90;49.30;;;;;;5014563;28;20525;-65
2022/07/17 08:21:28;;;;;;;5.47;0.93;;;22.90;49.20;;;;;;5025834;28;20497;-65
2022/07/17 08:23:53;;;;;;;6.18;1.10;;;22.90;49.40;;;;;;5010346;28;20091;-65
2022/07/17 08:26:19;;;;;;;6.55;1.02;;;22.90;49.60;;;;;;5030078;28;20556;-65
2022/07/17 08:28:46;;;;;;;2.80;1.08;;;22.90;49.70;;;;;;5033039;28;20489;-64
2022/07/17 08:31:12;;;;;;;4.55;0.95;;;22.90;49.70;;;;;;5028534;28;20111;-64
2022/07/17 08:33:38;;;;;;;4.53;1.02;;;22.90;49.70;;;;;;5032509;28;20029;-64
2022/07/17 08:36:03;;;;;;;4.00;1.00;;;22.90;49.70;;;;;;5028893;28;20511;-64
2022/07/17 08:38:29;;;;;;;9.98;1.30;;;22.90;49.70;;;;;;5027311;28;20071;-65
2022/07/17 08:40:55;;;;;;;1.98;0.90;;;23.00;49.70;;;;;;5007635;28;20056;-65
2022/07/17 08:43:21;;;;;;;3.05;0.90;;;22.90;49.70;;;;;;5029356;28;20037;-64
2022/07/17 08:45:48;;;;;;;6.65;1.30;;;22.90;49.60;;;;;;5011655;28;20037;-63
2022/07/17 08:48:15;;;;;;;3.03;1.00;;;22.90;49.70;;;;;;5026097;28;20452;-65
2022/07/17 08:50:42;;;;;;;4.55;0.80;;;22.90;50.20;;;;;;5010865;28;20041;-65
2022/07/17 08:53:08;;;;;;;4.28;1.13;;;23.00;50.40;;;;;;5009611;28;20147;-65
2022/07/17 08:55:34;;;;;;;6.00;1.10;;;23.00;50.50;;;;;;5028313;28;20044;-64
2022/07/17 08:58:00;;;;;;;4.35;1.17;;;23.00;50.60;;;;;;5011483;28;20577;-65
2022/07/17 09:00:27;;;;;;;5.07;1.10;;;23.00;50.40;;;;;;5028919;28;20042;-65
2022/07/17 09:02:56;;;;;;;5.50;1.25;;;23.00;50.40;;;;;;5010750;28;20064;-64
2022/07/17 09:05:24;;;;;;;4.63;1.15;;;23.00;50.20;;;;;;5029667;28;20044;-64
2022/07/17 09:07:49;;;;;;;4.43;1.00;;;23.00;50.10;;;;;;5030160;28;20535;-65
2022/07/17 09:10:15;;;;;;;3.80;0.82;;;23.00;50.10;;;;;;5014697;28;20072;-65
2022/07/17 09:12:42;;;;;;;4.47;1.00;;;23.00;50.10;;;;;;5009764;28;20119;-63
2022/07/17 09:15:18;;;;;;;2.50;1.10;;;23.00;50.00;;;;;;5000108;28;20052;-65
2022/07/17 09:17:52;;;;;;;2.47;1.10;;;23.00;49.90;;;;;;5011311;28;20084;-65
2022/07/17 09:20:19;;;;;;;7.22;1.25;;;23.00;49.90;;;;;;5029958;28;20041;-64
2022/07/17 09:22:55;;;;;;;6.55;1.00;;;23.00;49.80;;;;;;5010028;28;20106;-64
2022/07/17 09:25:32;;;;;;;4.07;1.10;;;23.00;49.80;;;;;;5032488;28;20045;-64
2022/07/17 09:27:59;;;;;;;4.15;1.13;;;23.00;49.80;;;;;;5028201;28;20052;-64
2022/07/17 09:30:26;;;;;;;4.00;1.00;;;23.00;49.90;;;;;;5010958;28;20535;-64
2022/07/17 09:32:54;;;;;;;4.25;1.10;;;23.00;49.90;;;;;;5029949;28;21690;-64
2022/07/17 09:35:22;;;;;;;4.30;1.27;;;23.00;50.00;;;;;;5029093;28;20033;-65
2022/07/17 09:37:50;;;;;;;1.98;1.00;;;23.00;50.70;;;;;;5029925;28;20040;-64
2022/07/17 09:41:09;;;;;;;5.05;0.80;;;23.00;50.00;;;;;;5029906;28;20037;-64
2022/07/17 09:43:02;;;;;;;4.45;1.20;;;23.00;50.10;;;;;;5027961;28;20103;-64
2022/07/17 09:45:28;;;;;;;6.15;1.20;;;23.00;50.00;;;;;;5030305;28;20537;-65
2022/07/17 09:47:56;;;;;;;3.50;1.30;;;23.00;50.20;;;;;;5027661;28;20144;-65
2022/07/17 09:50:23;;;;;;;3.13;0.98;;;23.00;50.30;;;;;;5007782;28;20175;-63
2022/07/17 09:52:52;;;;;;;3.88;1.20;;;23.00;50.30;;;;;;5007899;28;20094;-64
2022/07/17 09:55:20;;;;;;;3.47;0.95;;;23.00;50.50;;;;;;5026484;28;20041;-65
2022/07/17 09:57:47;;;;;;;3.08;0.93;;;23.00;50.70;;;;;;5005472;28;20626;-65
2022/07/17 10:00:13;;;;;;;3.00;0.80;;;23.10;50.80;;;;;;5008847;28;20044;-63
2022/07/17 10:02:43;;;;;;;3.42;0.80;;;23.10;50.80;;;;;;5026490;28;20477;-65
2022/07/17 10:05:16;;;;;;;3.22;1.00;;;23.10;50.80;;;;;;4990889;28;20102;-64
2022/07/17 10:07:46;;;;;;;2.15;1.00;;;23.10;50.90;;;;;;5027276;28;20041;-65
2022/07/17 10:10:16;;;;;;;7.40;1.80;;;23.10;51.00;;;;;;5008188;28;20140;-65
2022/07/17 10:12:44;;;;;;;2.47;0.90;;;23.10;51.10;;;;;;4991459;28;20065;-65
2022/07/17 10:15:11;;;;;;;2.30;0.90;;;23.10;51.30;;;;;;5009897;28;20045;-65
2022/07/17 10:17:37;;;;;;;2.78;0.93;;;23.10;51.40;;;;;;5009878;28;20076;-66
2022/07/17 10:20:04;;;;;;;2.95;1.33;;;23.10;51.40;;;;;;5011021;28;20565;-65
2022/07/17 10:22:44;;;;;;;1.90;0.98;;;23.10;51.30;;;;;;5028222;28;20052;-65
2022/07/17 10:25:15;;;;;;;2.90;1.00;;;23.10;51.30;;;;;;5029633;28;20037;-65
2022/07/17 10:27:49;;;;;;;3.15;1.23;;;23.10;51.20;;;;;;5001746;28;20382;-65
2022/07/17 10:30:22;;;;;;;2.90;1.08;;;23.10;51.20;;;;;;5008491;28;20042;-64
2022/07/17 10:32:58;;;;;;;3.72;1.08;;;23.10;51.20;;;;;;5009656;28;20037;-66
2022/07/17 10:35:24;;;;;;;4.43;0.95;;;23.10;51.20;;;;;;5001948;28;20050;-65
2022/07/17 10:37:50;;;;;;;4.20;0.90;;;23.10;51.10;;;;;;5010903;28;20127;-65
2022/07/17 10:40:29;;;;;;;2.25;0.93;;;23.10;51.00;;;;;;5031962;28;20513;-66
2022/07/17 10:42:56;;;;;;;3.53;1.10;;;23.10;51.10;;;;;;5031294;28;20540;-65
2022/07/17 10:45:34;;;;;;;3.42;0.80;;;23.10;51.10;;;;;;5033481;28;20585;-64
2022/07/17 10:48:12;;;;;;;5.35;0.98;;;23.10;51.00;;;;;;5035632;28;20060;-65
2022/07/17 10:50:41;;;;;;;5.82;1.20;;;23.10;51.00;;;;;;5014877;28;20121;-64
2022/07/17 10:53:12;;;;;;;4.85;1.08;;;23.10;50.80;;;;;;5032513;28;20026;-65
2022/07/17 10:55:43;;;;;;;3.65;0.90;;;23.10;50.70;;;;;;5029602;28;20128;-65
2022/07/17 10:58:23;;;;;;;3.42;1.17;;;23.20;50.80;;;;;;5029723;28;20108;-65
2022/07/17 11:01:00;;;;;;;3.22;1.27;;;23.10;50.90;;;;;;5030983;28;20048;-65
2022/07/17 11:03:27;;;;;;;4.65;0.90;;;23.10;50.80;;;;;;5033848;28;20147;-65
2022/07/17 11:05:52;;;;;;;7.28;1.23;;;23.10;50.80;;;;;;5033770;28;20065;-65
2022/07/17 11:08:18;;;;;;;2.85;1.10;;;23.10;50.50;;;;;;5013669;28;20048;-65
2022/07/17 11:10:46;;;;;;;2.72;1.02;;;23.10;50.50;;;;;;5032173;28;20476;-65
2022/07/17 11:13:15;;;;;;;2.70;0.88;;;23.10;50.50;;;;;;5009490;28;20400;-66
2022/07/17 11:15:46;;;;;;;1.35;0.85;;;23.10;50.40;;;;;;5013964;28;20422;-64
2022/07/17 11:18:18;;;;;;;3.40;1.17;;;23.10;50.40;;;;;;5010062;28;20111;-65
2022/07/17 11:20:53;;;;;;;3.83;0.90;;;23.10;50.40;;;;;;5030626;28;20045;-65
2022/07/17 11:23:21;;;;;;;2.53;0.90;;;23.10;50.40;;;;;;5031022;28;20335;-65
2022/07/17 11:26:02;;;;;;;2.22;0.90;;;23.10;50.40;;;;;;5031692;28;20044;-65
2022/07/17 11:28:39;;;;;;;2.30;0.85;;;23.10;50.40;;;;;;5029303;28;20092;-65
2022/07/17 11:31:18;;;;;;;1.75;0.80;;;23.10;50.40;;;;;;5011858;28;20048;-66
2022/07/17 11:33:48;;;;;;;3.17;1.00;;;23.10;50.40;;;;;;5010353;28;20083;-65
2022/07/17 11:36:36;;;;;;;4.28;0.80;;;23.10;50.50;;;;;;5012257;28;20107;-66
2022/07/17 11:39:11;;;;;;;3.25;1.00;;;23.10;50.50;;;;;;5031640;28;20116;-65
2022/07/17 11:41:47;;;;;;;5.47;1.17;;;23.10;50.60;;;;;;4999271;28;20064;-63
2022/07/17 11:44:15;;;;;;;2.92;1.10;;;23.10;50.60;;;;;;5029991;28;20091;-66
2022/07/17 11:46:47;;;;;;;2.45;1.08;;;23.10;50.60;;;;;;5031725;28;20080;-65
2022/07/17 11:49:34;;;;;;;3.75;1.13;;;23.10;50.60;;;;;;4997007;28;20148;-65
2022/07/17 11:52:12;;;;;;;2.13;1.08;;;23.10;50.50;;;;;;4993144;28;20041;-65
2022/07/17 11:54:51;;;;;;;3.25;1.05;;;23.10;50.50;;;;;;5028836;28;20056;-65
2022/07/17 11:57:19;;;;;;;2.83;1.00;;;23.10;50.50;;;;;;5005990;28;20049;-65
2022/07/17 11:59:45;;;;;;;2.95;1.02;;;23.10;50.40;;;;;;5027907;28;20041;-65
2022/07/17 12:02:14;;;;;;;2.30;0.98;;;23.10;50.30;;;;;;4980437;28;20397;-64
2022/07/17 12:04:54;;;;;;;1.10;0.90;;;23.10;50.30;;;;;;5025112;28;20077;-65
2022/07/17 12:07:26;;;;;;;5.70;1.10;;;23.10;50.40;;;;;;5006318;28;20049;-65
2022/07/17 12:09:53;;;;;;;5.00;1.27;;;23.10;50.30;;;;;;5027703;28;20279;-64
2022/07/17 12:12:23;;;;;;;2.55;1.10;;;23.10;50.00;;;;;;5007431;28;20099;-64
2022/07/17 12:15:00;;;;;;;2.30;1.20;;;23.20;50.10;;;;;;5024614;28;20065;-64
2022/07/17 12:17:46;;;;;;;5.45;1.38;;;23.20;50.10;;;;;;5024062;28;20687;-65
2022/07/17 12:20:11;;;;;;;3.95;1.25;;;23.20;50.40;;;;;;5026381;28;20045;-65
2022/07/17 12:22:45;;;;;;;3.05;1.40;;;23.20;50.40;;;;;;5029765;28;20067;-66
2022/07/17 12:25:21;;;;;;;2.85;1.10;;;23.20;50.40;;;;;;5028250;28;20095;-65
2022/07/17 12:27:47;;;;;;;3.42;1.25;;;23.20;51.10;;;;;;5029195;28;20045;-66
2022/07/17 12:30:13;;;;;;;3.15;1.10;;;23.20;50.50;;;;;;5008333;28;20040;-66
2022/07/17 12:32:42;;;;;;;2.15;0.88;;;23.20;50.50;;;;;;5012246;28;20041;-66
2022/07/17 12:35:08;;;;;;;3.65;1.20;;;23.20;50.60;;;;;;5015420;28;20048;-66
2022/07/17 12:37:34;;;;;;;3.53;1.20;;;23.20;50.70;;;;;;4996858;28;20140;-65
2022/07/17 12:40:00;;;;;;;2.05;1.10;;;23.20;50.60;;;;;;5029364;28;20040;-65
2022/07/17 12:42:25;;;;;;;2.08;1.23;;;23.20;50.40;;;;;;5031801;28;20034;-64
2022/07/17 12:44:51;;;;;;;4.10;1.70;;;23.20;50.20;;;;;;5028140;28;20038;-65
2022/07/17 12:47:17;;;;;;;1.42;1.10;;;23.20;50.20;;;;;;5028596;28;20495;-64